sensor_id;sensor_type;location;lat;lon;timestamp;pressure;altitude;pressure_sealevel;temperature;humidity
33506;BME280;19843;51.040;13.782;2023-04-08T00:02:11;100656.28;;;5.76;98.48
33506;BME280;19843;51.040;13.782;2023-04-08T00:04:40;100663.41;;;5.75;98.86
33506;BME280;19843;51.040;13.782;2023-04-08T00:07:07;100657.63;;;5.86;98.33
33506;BME280;19843;51.040;13.782;2023-04-08T00:09:35;100659.81;;;5.76;98.81
33506;BME280;19843;51.040;13.782;2023-04-08T00:12:02;100659.69;;;5.79;98.80
33506;BME280;19843;51.040;13.782;2023-04-08T00:14:29;100652.16;;;5.69;99.29
33506;BME280;19843;51.040;13.782;2023-04-08T00:16:57;100652.31;;;5.65;98.74
33506;BME280;19843;51.040;13.782;2023-04-08T00:19:24;100652.16;;;5.69;99.46
33506;BME280;19843;51.040;13.782;2023-04-08T00:21:53;100649.69;;;5.84;99.24
33506;BME280;19843;51.040;13.782;2023-04-08T00:24:20;100650.06;;;5.97;98.30
33506;BME280;19843;51.040;13.782;2023-04-08T00:26:47;100650.50;;;5.86;98.57
33506;BME280;19843;51.040;13.782;2023-04-08T00:29:14;100654.97;;;5.65;98.97
33506;BME280;19843;51.040;13.782;2023-04-08T00:31:42;100651.75;;;5.78;99.87
33506;BME280;19843;51.040;13.782;2023-04-08T00:34:09;100656.94;;;5.81;100.00
33506;BME280;19843;51.040;13.782;2023-04-08T00:36:36;100654.16;;;5.84;99.29
33506;BME280;19843;51.040;13.782;2023-04-08T00:39:05;100659.19;;;5.90;100.00
33506;BME280;19843;51.040;13.782;2023-04-08T00:41:32;100653.41;;;5.80;99.96
33506;BME280;19843;51.040;13.782;2023-04-08T00:44:00;100655.22;;;5.80;100.00
33506;BME280;19843;51.040;13.782;2023-04-08T00:46:27;100660.56;;;5.80;99.84
33506;BME280;19843;51.040;13.782;2023-04-08T00:48:55;100660.88;;;5.93;100.00
33506;BME280;19843;51.040;13.782;2023-04-08T00:51:22;100657.75;;;5.83;100.00
33506;BME280;19843;51.040;13.782;2023-04-08T00:53:49;100654.59;;;5.95;100.00
33506;BME280;19843;51.040;13.782;2023-04-08T00:56:18;100648.75;;;5.85;100.00
33506;BME280;19843;51.040;13.782;2023-04-08T00:58:46;100649.50;;;5.89;100.00
33506;BME280;19843;51.040;13.782;2023-04-08T01:01:16;100650.91;;;5.77;100.00
33506;BME280;19843;51.040;13.782;2023-04-08T01:03:49;100656.53;;;5.90;100.00
33506;BME280;19843;51.040;13.782;2023-04-08T01:06:21;100643.53;;;5.84;100.00
33506;BME280;19843;51.040;13.782;2023-04-08T01:08:52;100646.44;;;5.78;100.00
33506;BME280;19843;51.040;13.782;2023-04-08T01:11:21;100644.66;;;5.99;100.00
33506;BME280;19843;51.040;13.782;2023-04-08T01:13:48;100647.03;;;5.84;100.00
33506;BME280;19843;51.040;13.782;2023-04-08T01:16:16;100646.03;;;5.87;100.00
33506;BME280;19843;51.040;13.782;2023-04-08T01:18:44;100644.03;;;5.92;100.00
33506;BME280;19843;51.040;13.782;2023-04-08T01:21:12;100646.69;;;5.72;100.00
33506;BME280;19843;51.040;13.782;2023-04-08T01:23:42;100641.25;;;5.75;100.00
33506;BME280;19843;51.040;13.782;2023-04-08T01:26:24;100642.72;;;5.82;100.00
33506;BME280;19843;51.040;13.782;2023-04-08T01:28:52;100642.78;;;5.80;100.00
33506;BME280;19843;51.040;13.782;2023-04-08T01:31:21;100641.31;;;5.94;100.00
33506;BME280;19843;51.040;13.782;2023-04-08T01:33:49;100642.22;;;5.94;100.00
33506;BME280;19843;51.040;13.782;2023-04-08T01:36:17;100637.84;;;5.92;100.00
33506;BME280;19843;51.040;13.782;2023-04-08T01:38:46;100637.53;;;5.99;100.00
33506;BME280;19843;51.040;13.782;2023-04-08T01:41:16;100637.53;;;5.99;100.00
33506;BME280;19843;51.040;13.782;2023-04-08T01:43:44;100631.78;;;5.88;100.00
33506;BME280;19843;51.040;13.782;2023-04-08T01:46:12;100633.78;;;5.83;100.00
33506;BME280;19843;51.040;13.782;2023-04-08T01:48:39;100634.09;;;5.97;100.00
33506;BME280;19843;51.040;13.782;2023-04-08T01:51:07;100638.06;;;6.07;100.00
33506;BME280;19843;51.040;13.782;2023-04-08T01:53:35;100632.06;;;6.23;100.00
33506;BME280;19843;51.040;13.782;2023-04-08T01:56:03;100637.41;;;6.02;100.00
33506;BME280;19843;51.040;13.782;2023-04-08T01:58:35;100635.03;;;5.96;100.00
33506;BME280;19843;51.040;13.782;2023-04-08T02:01:03;100641.25;;;6.16;100.00
33506;BME280;19843;51.040;13.782;2023-04-08T02:03:32;100648.06;;;6.02;100.00
33506;BME280;19843;51.040;13.782;2023-04-08T02:06:01;100648.50;;;6.12;100.00
33506;BME280;19843;51.040;13.782;2023-04-08T02:08:28;100641.69;;;6.06;100.00
33506;BME280;19843;51.040;13.782;2023-04-08T02:10:55;100647.44;;;6.16;100.00
33506;BME280;19843;51.040;13.782;2023-04-08T02:13:23;100643.50;;;6.25;100.00
33506;BME280;19843;51.040;13.782;2023-04-08T02:15:53;100649.63;;;6.27;100.00
33506;BME280;19843;51.040;13.782;2023-04-08T02:18:24;100653.97;;;6.30;100.00
33506;BME280;19843;51.040;13.782;2023-04-08T02:20:53;100653.63;;;6.17;100.00
33506;BME280;19843;51.040;13.782;2023-04-08T02:23:24;100652.97;;;6.12;100.00
33506;BME280;19843;51.040;13.782;2023-04-08T02:25:54;100644.47;;;6.03;100.00
33506;BME280;19843;51.040;13.782;2023-04-08T02:28:22;100635.75;;;6.00;100.00
33506;BME280;19843;51.040;13.782;2023-04-08T02:30:52;100647.78;;;6.09;100.00
33506;BME280;19843;51.040;13.782;2023-04-08T02:33:20;100647.88;;;6.26;100.00
33506;BME280;19843;51.040;13.782;2023-04-08T02:35:48;100646.28;;;6.22;100.00
33506;BME280;19843;51.040;13.782;2023-04-08T02:38:16;100642.72;;;6.23;100.00
33506;BME280;19843;51.040;13.782;2023-04-08T02:40:44;100647.03;;;6.25;100.00
33506;BME280;19843;51.040;13.782;2023-04-08T02:43:11;100654.97;;;6.27;100.00
33506;BME280;19843;51.040;13.782;2023-04-08T02:45:40;100659.28;;;6.30;100.00
33506;BME280;19843;51.040;13.782;2023-04-08T02:48:09;100656.25;;;6.37;100.00
33506;BME280;19843;51.040;13.782;2023-04-08T02:50:36;100658.59;;;6.24;100.00
33506;BME280;19843;51.040;13.782;2023-04-08T02:53:03;100662.88;;;6.28;100.00
33506;BME280;19843;51.040;13.782;2023-04-08T02:55:31;100665.03;;;6.39;100.00
33506;BME280;19843;51.040;13.782;2023-04-08T02:57:58;100664.03;;;6.23;100.00
33506;BME280;19843;51.040;13.782;2023-04-08T03:00:25;100663.16;;;6.22;100.00
33506;BME280;19843;51.040;13.782;2023-04-08T03:02:53;100663.94;;;6.24;100.00
33506;BME280;19843;51.040;13.782;2023-04-08T03:05:22;100662.44;;;6.38;100.00
33506;BME280;19843;51.040;13.782;2023-04-08T03:07:49;100662.44;;;6.38;100.00
33506;BME280;19843;51.040;13.782;2023-04-08T03:10:16;100659.34;;;6.28;100.00
33506;BME280;19843;51.040;13.782;2023-04-08T03:12:43;100660.94;;;6.32;100.00
33506;BME280;19843;51.040;13.782;2023-04-08T03:15:11;100654.81;;;6.30;100.00
33506;BME280;19843;51.040;13.782;2023-04-08T03:17:38;100657.47;;;6.30;100.00
33506;BME280;19843;51.040;13.782;2023-04-08T03:20:06;100656.41;;;6.34;100.00
33506;BME280;19843;51.040;13.782;2023-04-08T03:22:35;100662.16;;;6.25;100.00
33506;BME280;19843;51.040;13.782;2023-04-08T03:25:02;100657.69;;;6.44;100.00
33506;BME280;19843;51.040;13.782;2023-04-08T03:27:30;100653.97;;;6.30;100.00
33506;BME280;19843;51.040;13.782;2023-04-08T03:29:57;100649.84;;;6.22;100.00
33506;BME280;19843;51.040;13.782;2023-04-08T03:32:25;100654.00;;;6.28;100.00
33506;BME280;19843;51.040;13.782;2023-04-08T03:34:52;100654.41;;;6.39;100.00
33506;BME280;19843;51.040;13.782;2023-04-08T03:37:19;100654.41;;;6.39;100.00
33506;BME280;19843;51.040;13.782;2023-04-08T03:39:48;100661.75;;;6.53;100.00
33506;BME280;19843;51.040;13.782;2023-04-08T03:42:15;100663.34;;;6.38;100.00
33506;BME280;19843;51.040;13.782;2023-04-08T03:44:43;100657.16;;;6.57;100.00
33506;BME280;19843;51.040;13.782;2023-04-08T03:47:10;100654.25;;;6.42;100.00
33506;BME280;19843;51.040;13.782;2023-04-08T03:49:38;100655.50;;;6.54;100.00
33506;BME280;19843;51.040;13.782;2023-04-08T03:52:05;100657.63;;;6.46;100.00
33506;BME280;19843;51.040;13.782;2023-04-08T03:54:33;100656.25;;;6.37;100.00
33506;BME280;19843;51.040;13.782;2023-04-08T03:57:01;100658.28;;;6.51;100.00
33506;BME280;19843;51.040;13.782;2023-04-08T03:59:29;100663.91;;;6.45;100.00
33506;BME280;19843;51.040;13.782;2023-04-08T04:01:57;100662.75;;;6.51;100.00
33506;BME280;19843;51.040;13.782;2023-04-08T04:04:24;100659.28;;;6.48;100.00
33506;BME280;19843;51.040;13.782;2023-04-08T04:06:51;100665.94;;;6.59;100.00
33506;BME280;19843;51.040;13.782;2023-04-08T04:09:19;100667.81;;;6.57;100.00
33506;BME280;19843;51.040;13.782;2023-04-08T04:11:46;100664.06;;;6.61;100.00
33506;BME280;19843;51.040;13.782;2023-04-08T04:14:15;100670.09;;;6.64;100.00
33506;BME280;19843;51.040;13.782;2023-04-08T04:16:42;100670.03;;;6.66;100.00
33506;BME280;19843;51.040;13.782;2023-04-08T04:19:09;100672.25;;;6.56;100.00
33506;BME280;19843;51.040;13.782;2023-04-08T04:21:37;100671.59;;;6.51;100.00
33506;BME280;19843;51.040;13.782;2023-04-08T04:24:04;100676.50;;;6.41;100.00
33506;BME280;19843;51.040;13.782;2023-04-08T04:26:32;100675.00;;;6.55;100.00
33506;BME280;19843;51.040;13.782;2023-04-08T04:28:59;100676.44;;;6.62;100.00
33506;BME280;19843;51.040;13.782;2023-04-08T04:31:28;100682.06;;;6.56;100.00
33506;BME280;19843;51.040;13.782;2023-04-08T04:33:55;100681.19;;;6.55;100.00
33506;BME280;19843;51.040;13.782;2023-04-08T04:36:23;100680.19;;;6.58;100.00
33506;BME280;19843;51.040;13.782;2023-04-08T04:38:51;100675.72;;;6.58;100.00
33506;BME280;19843;51.040;13.782;2023-04-08T04:41:19;100687.81;;;6.46;100.00
33506;BME280;19843;51.040;13.782;2023-04-08T04:43:47;100685.78;;;6.52;100.00
33506;BME280;19843;51.040;13.782;2023-04-08T04:46:14;100698.78;;;6.59;100.00
33506;BME280;19843;51.040;13.782;2023-04-08T04:48:43;100703.09;;;6.62;100.00
33506;BME280;19843;51.040;13.782;2023-04-08T04:51:10;100695.16;;;6.41;100.00
33506;BME280;19843;51.040;13.782;2023-04-08T04:53:37;100704.31;;;6.55;100.00
33506;BME280;19843;51.040;13.782;2023-04-08T04:56:05;100709.75;;;6.52;100.00
33506;BME280;19843;51.040;13.782;2023-04-08T04:58:32;100708.06;;;6.69;100.00
33506;BME280;19843;51.040;13.782;2023-04-08T05:00:59;100703.00;;;6.44;100.00
33506;BME280;19843;51.040;13.782;2023-04-08T05:03:27;100701.44;;;6.59;100.00
33506;BME280;19843;51.040;13.782;2023-04-08T05:05:55;100704.16;;;6.58;100.00
33506;BME280;19843;51.040;13.782;2023-04-08T05:08:23;100701.72;;;6.53;100.00
33506;BME280;19843;51.040;13.782;2023-04-08T05:10:53;100703.94;;;6.43;100.00
33506;BME280;19843;51.040;13.782;2023-04-08T05:13:21;100709.88;;;6.69;100.00
33506;BME280;19843;51.040;13.782;2023-04-08T05:15:48;100702.66;;;6.71;100.00
33506;BME280;19843;51.040;13.782;2023-04-08T05:18:15;100703.69;;;6.68;100.00
33506;BME280;19843;51.040;13.782;2023-04-08T05:20:43;100709.31;;;6.81;100.00
33506;BME280;19843;51.040;13.782;2023-04-08T05:23:11;100707.25;;;6.67;100.00
33506;BME280;19843;51.040;13.782;2023-04-08T05:25:39;100716.50;;;6.79;100.00
33506;BME280;19843;51.040;13.782;2023-04-08T05:28:06;100715.19;;;6.88;100.00
33506;BME280;19843;51.040;13.782;2023-04-08T05:30:33;100716.22;;;6.85;100.00
33506;BME280;19843;51.040;13.782;2023-04-08T05:33:01;100714.34;;;6.87;100.00
33506;BME280;19843;51.040;13.782;2023-04-08T05:35:28;100713.09;;;6.95;100.00
33506;BME280;19843;51.040;13.782;2023-04-08T05:37:56;100718.97;;;6.84;100.00
33506;BME280;19843;51.040;13.782;2023-04-08T05:40:24;100719.25;;;6.78;100.00
33506;BME280;19843;51.040;13.782;2023-04-08T05:42:52;100725.53;;;6.96;100.00
33506;BME280;19843;51.040;13.782;2023-04-08T05:45:19;100726.38;;;6.96;100.00
33506;BME280;19843;51.040;13.782;2023-04-08T05:47:47;100728.31;;;6.93;100.00
33506;BME280;19843;51.040;13.782;2023-04-08T05:50:14;100731.41;;;6.83;100.00
33506;BME280;19843;51.040;13.782;2023-04-08T05:52:42;100735.38;;;6.94;100.00
33506;BME280;19843;51.040;13.782;2023-04-08T05:55:10;100729.03;;;6.96;100.00
33506;BME280;19843;51.040;13.782;2023-04-08T05:57:39;100734.81;;;7.06;100.00
33506;BME280;19843;51.040;13.782;2023-04-08T06:00:07;100733.16;;;7.03;100.00
33506;BME280;19843;51.040;13.782;2023-04-08T06:02:35;100736.97;;;6.98;100.00
33506;BME280;19843;51.040;13.782;2023-04-08T06:05:03;100732.38;;;7.20;100.00
33506;BME280;19843;51.040;13.782;2023-04-08T06:07:31;100740.38;;;7.20;100.00
33506;BME280;19843;51.040;13.782;2023-04-08T06:09:59;100744.13;;;7.16;100.00
33506;BME280;19843;51.040;13.782;2023-04-08T06:12:26;100746.72;;;7.18;100.00
33506;BME280;19843;51.040;13.782;2023-04-08T06:14:55;100752.09;;;7.16;100.00
33506;BME280;19843;51.040;13.782;2023-04-08T06:17:22;100753.59;;;7.22;100.00
33506;BME280;19843;51.040;13.782;2023-04-08T06:19:50;100759.16;;;7.17;100.00
33506;BME280;19843;51.040;13.782;2023-04-08T06:22:17;100765.88;;;7.26;100.00
33506;BME280;19843;51.040;13.782;2023-04-08T06:24:45;100766.88;;;7.23;100.00
33506;BME280;19843;51.040;13.782;2023-04-08T06:27:13;100761.72;;;7.20;100.00
33506;BME280;19843;51.040;13.782;2023-04-08T06:29:40;100762.13;;;7.30;100.00
33506;BME280;19843;51.040;13.782;2023-04-08T06:32:09;100758.41;;;7.51;100.00
33506;BME280;19843;51.040;13.782;2023-04-08T06:34:37;100757.88;;;7.45;100.00
33506;BME280;19843;51.040;13.782;2023-04-08T06:37:05;100763.03;;;7.48;100.00
33506;BME280;19843;51.040;13.782;2023-04-08T06:39:32;100754.75;;;7.35;100.00
33506;BME280;19843;51.040;13.782;2023-04-08T06:42:00;100768.16;;;7.52;100.00
33506;BME280;19843;51.040;13.782;2023-04-08T06:44:27;100765.38;;;7.73;100.00
33506;BME280;19843;51.040;13.782;2023-04-08T06:46:55;100773.88;;;7.81;100.00
33506;BME280;19843;51.040;13.782;2023-04-08T06:49:23;100776.94;;;7.91;100.00
33506;BME280;19843;51.040;13.782;2023-04-08T06:51:52;100775.19;;;7.90;100.00
33506;BME280;19843;51.040;13.782;2023-04-08T06:54:19;100778.66;;;7.74;100.00
33506;BME280;19843;51.040;13.782;2023-04-08T06:56:46;100785.88;;;7.90;100.00
33506;BME280;19843;51.040;13.782;2023-04-08T06:59:14;100792.25;;;7.87;100.00
33506;BME280;19843;51.040;13.782;2023-04-08T07:01:41;100802.69;;;7.92;100.00
33506;BME280;19843;51.040;13.782;2023-04-08T07:04:08;100797.78;;;8.02;100.00
33506;BME280;19843;51.040;13.782;2023-04-08T07:06:37;100802.88;;;8.06;100.00
33506;BME280;19843;51.040;13.782;2023-04-08T07:09:05;100809.47;;;8.16;100.00
33506;BME280;19843;51.040;13.782;2023-04-08T07:11:33;100806.19;;;8.11;97.35
33506;BME280;19843;51.040;13.782;2023-04-08T07:14:00;100809.66;;;8.13;97.04
33506;BME280;19843;51.040;13.782;2023-04-08T07:16:27;100814.66;;;8.20;95.36
33506;BME280;19843;51.040;13.782;2023-04-08T07:18:55;100820.09;;;8.18;94.08
33506;BME280;19843;51.040;13.782;2023-04-08T07:21:23;100821.44;;;8.27;93.66
33506;BME280;19843;51.040;13.782;2023-04-08T07:23:52;100821.28;;;8.30;92.85
33506;BME280;19843;51.040;13.782;2023-04-08T07:26:19;100824.56;;;8.35;92.33
33506;BME280;19843;51.040;13.782;2023-04-08T07:28:47;100831.84;;;8.50;92.04
33506;BME280;19843;51.040;13.782;2023-04-08T07:31:15;100832.88;;;8.65;92.76
33506;BME280;19843;51.040;13.782;2023-04-08T07:33:44;100837.78;;;8.38;88.50
33506;BME280;19843;51.040;13.782;2023-04-08T07:36:12;100838.41;;;8.61;88.57
33506;BME280;19843;51.040;13.782;2023-04-08T07:38:40;100830.09;;;8.67;89.07
33506;BME280;19843;51.040;13.782;2023-04-08T07:41:08;100840.97;;;8.64;87.67
33506;BME280;19843;51.040;13.782;2023-04-08T07:43:36;100845.09;;;8.69;88.18
33506;BME280;19843;51.040;13.782;2023-04-08T07:46:04;100843.31;;;8.70;87.65
33506;BME280;19843;51.040;13.782;2023-04-08T07:48:32;100850.56;;;8.68;86.79
33506;BME280;19843;51.040;13.782;2023-04-08T07:51:01;100853.22;;;8.68;86.08
33506;BME280;19843;51.040;13.782;2023-04-08T07:53:35;100850.88;;;8.62;84.24
33506;BME280;19843;51.040;13.782;2023-04-08T07:56:09;100860.03;;;8.39;83.70
33506;BME280;19843;51.040;13.782;2023-04-08T07:58:37;100859.19;;;8.55;85.19
33506;BME280;19843;51.040;13.782;2023-04-08T08:01:13;100862.19;;;8.67;85.77
33506;BME280;19843;51.040;13.782;2023-04-08T08:03:40;100866.34;;;8.72;84.81
33506;BME280;19843;51.040;13.782;2023-04-08T08:06:07;100876.09;;;8.73;84.03
33506;BME280;19843;51.040;13.782;2023-04-08T08:08:37;100864.41;;;8.59;83.80
33506;BME280;19843;51.040;13.782;2023-04-08T08:11:04;100864.06;;;8.65;84.56
33506;BME280;19843;51.040;13.782;2023-04-08T08:13:33;100868.63;;;8.80;83.10
33506;BME280;19843;51.040;13.782;2023-04-08T08:16:00;100871.13;;;8.83;83.44
33506;BME280;19843;51.040;13.782;2023-04-08T08:18:27;100876.63;;;8.80;79.96
33506;BME280;19843;51.040;13.782;2023-04-08T08:20:55;100877.44;;;8.82;80.48
33506;BME280;19843;51.040;13.782;2023-04-08T08:23:22;100883.16;;;8.92;80.32
33506;BME280;19843;51.040;13.782;2023-04-08T08:25:57;100889.03;;;8.98;81.54
33506;BME280;19843;51.040;13.782;2023-04-08T08:28:25;100885.19;;;9.04;79.40
33506;BME280;19843;51.040;13.782;2023-04-08T08:30:54;100888.44;;;8.93;79.39
33506;BME280;19843;51.040;13.782;2023-04-08T08:33:22;100883.78;;;8.97;78.17
33506;BME280;19843;51.040;13.782;2023-04-08T08:35:50;100890.69;;;9.01;78.73
33506;BME280;19843;51.040;13.782;2023-04-08T08:38:18;100897.84;;;9.01;79.99
33506;BME280;19843;51.040;13.782;2023-04-08T08:40:45;100895.78;;;9.23;79.54
33506;BME280;19843;51.040;13.782;2023-04-08T08:43:12;100902.09;;;9.22;77.64
33506;BME280;19843;51.040;13.782;2023-04-08T08:45:41;100902.44;;;9.32;77.73
33506;BME280;19843;51.040;13.782;2023-04-08T08:48:09;100902.53;;;9.13;76.92
33506;BME280;19843;51.040;13.782;2023-04-08T08:50:37;100900.19;;;9.40;78.91
33506;BME280;19843;51.040;13.782;2023-04-08T08:53:04;100901.63;;;9.47;75.49
33506;BME280;19843;51.040;13.782;2023-04-08T08:55:32;100919.31;;;9.50;75.16
33506;BME280;19843;51.040;13.782;2023-04-08T08:58:19;100912.78;;;9.71;75.55
33506;BME280;19843;51.040;13.782;2023-04-08T09:00:47;100910.81;;;9.91;76.35
33506;BME280;19843;51.040;13.782;2023-04-08T09:03:17;100919.00;;;9.88;75.18
33506;BME280;19843;51.040;13.782;2023-04-08T09:05:52;100925.31;;;10.02;75.75
33506;BME280;19843;51.040;13.782;2023-04-08T09:08:23;100919.69;;;10.23;74.06
33506;BME280;19843;51.040;13.782;2023-04-08T09:10:51;100917.88;;;10.08;72.48
33506;BME280;19843;51.040;13.782;2023-04-08T09:13:18;100924.53;;;10.16;74.29
33506;BME280;19843;51.040;13.782;2023-04-08T09:15:59;100923.78;;;10.30;74.68
33506;BME280;19843;51.040;13.782;2023-04-08T09:18:28;100928.78;;;10.36;74.54
33506;BME280;19843;51.040;13.782;2023-04-08T09:20:56;100940.53;;;10.18;73.64
33506;BME280;19843;51.040;13.782;2023-04-08T09:23:23;100938.66;;;10.04;72.41
33506;BME280;19843;51.040;13.782;2023-04-08T09:25:50;100944.00;;;10.04;73.30
33506;BME280;19843;51.040;13.782;2023-04-08T09:28:18;100942.00;;;10.23;72.97
33506;BME280;19843;51.040;13.782;2023-04-08T09:30:45;100939.84;;;10.46;73.36
33506;BME280;19843;51.040;13.782;2023-04-08T09:33:13;100939.16;;;10.58;71.66
33506;BME280;19843;51.040;13.782;2023-04-08T09:35:41;100929.66;;;10.67;71.69
33506;BME280;19843;51.040;13.782;2023-04-08T09:38:11;100941.94;;;10.71;70.92
33506;BME280;19843;51.040;13.782;2023-04-08T09:40:39;100943.50;;;10.75;70.59
33506;BME280;19843;51.040;13.782;2023-04-08T09:43:07;100941.88;;;10.73;69.87
33506;BME280;19843;51.040;13.782;2023-04-08T09:45:35;100945.63;;;10.84;69.26
33506;BME280;19843;51.040;13.782;2023-04-08T09:48:05;100939.16;;;10.58;70.04
33506;BME280;19843;51.040;13.782;2023-04-08T09:50:42;100938.28;;;10.42;69.71
33506;BME280;19843;51.040;13.782;2023-04-08T09:53:18;100948.69;;;10.32;70.79
33506;BME280;19843;51.040;13.782;2023-04-08T09:55:49;100955.91;;;10.14;70.01
33506;BME280;19843;51.040;13.782;2023-04-08T09:58:18;100951.94;;;10.06;71.07
33506;BME280;19843;51.040;13.782;2023-04-08T10:00:49;100956.09;;;9.79;70.95
33506;BME280;19843;51.040;13.782;2023-04-08T10:03:22;100960.31;;;9.83;71.49
33506;BME280;19843;51.040;13.782;2023-04-08T10:05:53;100963.50;;;9.74;71.22
33506;BME280;19843;51.040;13.782;2023-04-08T10:08:22;100960.94;;;9.89;71.47
33506;BME280;19843;51.040;13.782;2023-04-08T10:10:51;100954.03;;;10.16;71.49
33506;BME280;19843;51.040;13.782;2023-04-08T10:13:18;100946.72;;;10.36;71.22
33506;BME280;19843;51.040;13.782;2023-04-08T10:15:46;100960.00;;;10.37;71.05
33506;BME280;19843;51.040;13.782;2023-04-08T10:20:56;100966.09;;;9.92;70.58
33506;BME280;19843;51.040;13.782;2023-04-08T10:26:28;100965.78;;;10.14;70.86
33506;BME280;19843;51.040;13.782;2023-04-08T10:29:06;100973.84;;;10.30;70.85
33506;BME280;19843;51.040;13.782;2023-04-08T10:31:53;100969.38;;;10.13;69.18
33506;BME280;19843;51.040;13.782;2023-04-08T10:34:21;100970.31;;;10.29;69.57
33506;BME280;19843;51.040;13.782;2023-04-08T10:36:49;100973.66;;;10.33;68.19
33506;BME280;19843;51.040;13.782;2023-04-08T10:39:18;100974.28;;;10.54;68.67
33506;BME280;19843;51.040;13.782;2023-04-08T10:41:47;100968.22;;;10.50;67.85
33506;BME280;19843;51.040;13.782;2023-04-08T10:44:15;100965.31;;;10.69;67.16
33506;BME280;19843;51.040;13.782;2023-04-08T10:46:43;100969.22;;;10.63;66.10
33506;BME280;19843;51.040;13.782;2023-04-08T10:49:11;100960.25;;;10.49;63.97
33506;BME280;19843;51.040;13.782;2023-04-08T10:51:38;100967.06;;;10.70;64.96
33506;BME280;19843;51.040;13.782;2023-04-08T10:54:07;100963.09;;;10.92;64.45
33506;BME280;19843;51.040;13.782;2023-04-08T10:56:36;100963.09;;;10.92;63.05
33506;BME280;19843;51.040;13.782;2023-04-08T10:59:09;100962.41;;;10.58;63.68
33506;BME280;19843;51.040;13.782;2023-04-08T11:01:37;100969.59;;;10.57;63.84
33506;BME280;19843;51.040;13.782;2023-04-08T11:04:06;100972.97;;;10.45;64.69
33506;BME280;19843;51.040;13.782;2023-04-08T11:06:35;100965.97;;;10.58;65.17
33506;BME280;19843;51.040;13.782;2023-04-08T11:09:02;100985.09;;;10.36;65.13
33506;BME280;19843;51.040;13.782;2023-04-08T11:11:30;100983.75;;;10.28;65.62
33506;BME280;19843;51.040;13.782;2023-04-08T11:13:59;100982.91;;;10.27;66.00
33506;BME280;19843;51.040;13.782;2023-04-08T11:16:27;100985.31;;;10.16;66.86
33506;BME280;19843;51.040;13.782;2023-04-08T11:18:55;100980.28;;;9.94;67.58
33506;BME280;19843;51.040;13.782;2023-04-08T11:21:23;100981.06;;;9.96;68.47
33506;BME280;19843;51.040;13.782;2023-04-08T11:23:54;100986.69;;;10.07;68.35
33506;BME280;19843;51.040;13.782;2023-04-08T11:26:22;101000.00;;;9.93;68.37
33506;BME280;19843;51.040;13.782;2023-04-08T11:28:51;100999.72;;;9.81;69.01
33506;BME280;19843;51.040;13.782;2023-04-08T11:31:21;100995.53;;;9.76;69.82
33506;BME280;19843;51.040;13.782;2023-04-08T11:33:51;100992.34;;;9.69;70.11
33506;BME280;19843;51.040;13.782;2023-04-08T11:36:19;101000.53;;;9.66;70.78
33506;BME280;19843;51.040;13.782;2023-04-08T11:38:47;100994.63;;;9.77;70.57
33506;BME280;19843;51.040;13.782;2023-04-08T11:41:15;100995.97;;;10.01;70.63
33506;BME280;19843;51.040;13.782;2023-04-08T11:43:52;100995.78;;;10.04;70.12
33506;BME280;19843;51.040;13.782;2023-04-08T11:46:20;100998.47;;;10.20;71.02
33506;BME280;19843;51.040;13.782;2023-04-08T11:49:02;100995.97;;;10.17;70.59
33506;BME280;19843;51.040;13.782;2023-04-08T11:51:29;100999.75;;;10.13;70.40
33506;BME280;19843;51.040;13.782;2023-04-08T11:53:57;101007.81;;;9.80;71.20
33506;BME280;19843;51.040;13.782;2023-04-08T11:56:25;101000.28;;;9.71;71.66
33506;BME280;19843;51.040;13.782;2023-04-08T11:58:52;101009.59;;;9.64;72.86
33506;BME280;19843;51.040;13.782;2023-04-08T12:01:21;101013.13;;;9.81;73.15
33506;BME280;19843;51.040;13.782;2023-04-08T12:03:55;101012.47;;;9.76;72.82
33506;BME280;19843;51.040;13.782;2023-04-08T12:06:23;101013.50;;;9.74;73.27
33506;BME280;19843;51.040;13.782;2023-04-08T12:08:53;101013.56;;;9.56;74.87
33506;BME280;19843;51.040;13.782;2023-04-08T12:11:20;101020.00;;;9.70;75.17
33506;BME280;19843;51.040;13.782;2023-04-08T12:13:48;101025.53;;;9.82;74.59
33506;BME280;19843;51.040;13.782;2023-04-08T12:16:18;101022.47;;;9.90;74.16
33506;BME280;19843;51.040;13.782;2023-04-08T12:18:47;101027.69;;;9.76;74.38
33506;BME280;19843;51.040;13.782;2023-04-08T12:21:15;101023.66;;;9.85;74.17
33506;BME280;19843;51.040;13.782;2023-04-08T12:23:42;101026.09;;;10.05;74.29
33506;BME280;19843;51.040;13.782;2023-04-08T12:26:09;101023.03;;;10.29;73.06
33506;BME280;19843;51.040;13.782;2023-04-08T12:28:38;101033.19;;;9.90;73.73
33506;BME280;19843;51.040;13.782;2023-04-08T12:31:05;101036.25;;;10.16;73.90
33506;BME280;19843;51.040;13.782;2023-04-08T12:33:33;101040.25;;;9.91;73.48
33506;BME280;19843;51.040;13.782;2023-04-08T12:36:01;101038.88;;;10.33;72.25
33506;BME280;19843;51.040;13.782;2023-04-08T12:38:29;101029.59;;;10.23;72.60
33506;BME280;19843;51.040;13.782;2023-04-08T12:40:56;101040.88;;;10.30;71.67
33506;BME280;19843;51.040;13.782;2023-04-08T12:43:23;101042.47;;;10.16;71.43
33506;BME280;19843;51.040;13.782;2023-04-08T12:45:51;101040.75;;;10.15;71.39
33506;BME280;19843;51.040;13.782;2023-04-08T12:48:18;101040.03;;;10.28;70.86
33506;BME280;19843;51.040;13.782;2023-04-08T12:50:45;101033.75;;;10.29;70.04
33506;BME280;19843;51.040;13.782;2023-04-08T12:53:14;101038.09;;;10.31;69.91
33506;BME280;19843;51.040;13.782;2023-04-08T12:55:41;101046.28;;;9.79;70.57